createdAt,value
2022-08-20T00:01:03.353Z,7.22
2022-08-20T00:02:40.256Z,7.15
2022-08-20T00:04:14.905Z,7.35
2022-08-20T00:05:52.817Z,6.68
2022-08-20T00:07:30.964Z,7.07
2022-08-20T00:09:05.164Z,7.22
2022-08-20T00:10:41.144Z,7.15
2022-08-20T00:12:17.971Z,7.40
2022-08-20T00:13:54.719Z,7.00
2022-08-20T00:15:31.643Z,6.95
2022-08-20T00:17:06.817Z,7.10
2022-08-20T00:18:41.386Z,7.57
2022-08-20T00:20:15.235Z,8.00
2022-08-20T00:21:48.401Z,6.93
2022-08-20T00:23:23.451Z,7.80
2022-08-20T00:24:56.786Z,6.82
2022-08-20T00:26:30.407Z,7.10
2022-08-20T00:28:04.601Z,7.57
2022-08-20T00:29:38.319Z,7.60
2022-08-20T00:31:14.125Z,7.45
2022-08-20T00:32:50.554Z,8.00
2022-08-20T00:34:23.950Z,8.13
2022-08-20T00:35:58.085Z,7.28
2022-08-20T00:37:30.306Z,9.15
2022-08-20T00:39:03.934Z,8.25
2022-08-20T00:40:40.249Z,7.70
2022-08-20T00:42:13.876Z,7.53
2022-08-20T00:43:52.117Z,7.13
2022-08-20T00:45:25.445Z,6.82
2022-08-20T00:46:58.876Z,7.45
2022-08-20T00:48:33.533Z,7.38
2022-08-20T00:50:08.052Z,6.95
2022-08-20T00:51:43.942Z,7.13
2022-08-20T00:53:18.577Z,7.60
2022-08-20T00:54:56.803Z,7.53
2022-08-20T00:56:33.584Z,7.13
2022-08-20T00:58:09.957Z,7.32
2022-08-20T00:59:45.063Z,7.70
2022-08-20T01:01:19.621Z,7.43
2022-08-20T01:02:52.970Z,8.25
2022-08-20T01:04:29.618Z,7.47
2022-08-20T01:06:02.881Z,7.20
2022-08-20T01:07:36.223Z,7.78
2022-08-20T01:09:10.516Z,7.47
2022-08-20T01:10:48.254Z,8.43
2022-08-20T01:12:23.727Z,8.10
2022-08-20T01:13:58.906Z,8.07
2022-08-20T01:15:33.949Z,8.25
2022-08-20T01:17:09.619Z,8.65
2022-08-20T01:18:48.354Z,7.68
2022-08-20T01:20:25.813Z,7.68
2022-08-20T01:22:01.467Z,8.13
2022-08-20T01:23:43.765Z,7.78
2022-08-20T01:25:24.250Z,7.82
2022-08-20T01:27:02.141Z,7.95
2022-08-20T01:28:41.107Z,7.82
2022-08-20T01:30:14.503Z,8.40
2022-08-20T01:31:48.143Z,8.30
2022-08-20T01:33:23.410Z,8.65
2022-08-20T01:34:56.753Z,6.93
2022-08-20T01:36:37.482Z,7.60
2022-08-20T01:38:10.437Z,6.78
2022-08-20T01:39:44.293Z,8.18
2022-08-20T01:41:28.692Z,7.07
2022-08-20T01:43:09.179Z,7.93
2022-08-20T01:44:45.599Z,8.07
2022-08-20T01:46:18.414Z,7.30
2022-08-20T01:47:53.222Z,7.57
2022-08-20T01:49:29.592Z,7.63
2022-08-20T01:51:07.529Z,7.75
2022-08-20T01:52:53.183Z,7.55
2022-08-20T01:54:27.218Z,8.23
2022-08-20T01:55:59.821Z,8.00
2022-08-20T01:57:35.495Z,8.07
2022-08-20T01:59:10.051Z,7.85
2022-08-20T02:00:43.020Z,8.07
2022-08-20T02:02:16.494Z,7.55
2022-08-20T02:03:51.172Z,7.53
2022-08-20T02:05:24.396Z,8.02
2022-08-20T02:07:06.163Z,7.57
2022-08-20T02:08:39.917Z,7.82
2022-08-20T02:10:16.401Z,8.50
2022-08-20T02:11:49.952Z,8.10
2022-08-20T02:13:22.269Z,8.02
2022-08-20T02:14:57.141Z,8.02
2022-08-20T02:16:33.870Z,8.00
2022-08-20T02:18:08.509Z,8.13
2022-08-20T02:19:45.005Z,8.32
2022-08-20T02:21:19.747Z,7.82
2022-08-20T02:22:56.894Z,8.13
2022-08-20T02:24:30.105Z,8.73
2022-08-20T02:26:03.374Z,8.63
2022-08-20T02:27:35.951Z,10.13
2022-08-20T02:29:12.220Z,8.65
2022-08-20T02:30:48.424Z,8.30
2022-08-20T02:32:32.250Z,7.80
2022-08-20T02:34:22.232Z,8.65
2022-08-20T02:35:58.015Z,8.38
2022-08-20T02:37:31.549Z,8.35
2022-08-20T02:39:07.375Z,7.63
2022-08-20T02:40:41.634Z,8.70
2022-08-20T02:42:15.498Z,7.50
2022-08-20T02:43:49.779Z,8.52
2022-08-20T02:45:23.277Z,7.57
2022-08-20T02:46:58.435Z,8.07
2022-08-20T02:48:33.770Z,8.63
2022-08-20T02:50:09.058Z,8.63
2022-08-20T02:51:42.416Z,8.00
2022-08-20T02:53:15.357Z,8.18
2022-08-20T02:54:49.634Z,8.43
2022-08-20T02:56:22.796Z,7.78
2022-08-20T02:57:58.571Z,8.43
2022-08-20T02:59:32.321Z,7.97
2022-08-20T03:01:08.002Z,7.97
2022-08-20T03:02:42.829Z,8.70
2022-08-20T03:04:16.320Z,8.30
2022-08-20T03:05:51.462Z,8.30
2022-08-20T03:07:25.202Z,7.97
2022-08-20T03:08:58.396Z,8.43
2022-08-20T03:10:34.733Z,7.93
2022-08-20T03:12:08.673Z,8.30
2022-08-20T03:13:42.602Z,8.20
2022-08-20T03:15:17.556Z,8.85
2022-08-20T03:16:52.237Z,8.77
2022-08-20T03:18:30.061Z,8.75
2022-08-20T03:20:04.014Z,8.85
2022-08-20T03:21:37.282Z,8.88
2022-08-20T03:23:10.941Z,8.18
2022-08-20T03:24:44.485Z,8.88
2022-08-20T03:26:18.039Z,8.57
2022-08-20T03:27:54.356Z,8.85
2022-08-20T03:29:28.276Z,8.60
2022-08-20T03:31:01.699Z,8.63
2022-08-20T03:32:35.027Z,8.25
2022-08-20T03:34:09.704Z,8.60
2022-08-20T03:35:43.199Z,9.63
2022-08-20T03:37:16.491Z,8.32
2022-08-20T03:38:49.804Z,8.68
2022-08-20T03:40:26.275Z,8.38
2022-08-20T03:41:59.837Z,8.50
2022-08-20T03:43:33.887Z,8.88
2022-08-20T03:45:08.421Z,8.68
2022-08-20T03:46:41.722Z,8.07
2022-08-20T03:48:19.039Z,8.55
2022-08-20T03:49:52.756Z,8.82
2022-08-20T03:51:26.167Z,8.77
2022-08-20T03:53:00.667Z,8.52
2022-08-20T03:54:34.330Z,8.35
2022-08-20T03:56:08.232Z,8.10
2022-08-20T03:57:46.783Z,9.35
2022-08-20T03:59:19.984Z,8.77
2022-08-20T04:00:53.700Z,8.70
2022-08-20T04:02:27.391Z,9.20
2022-08-20T04:04:00.989Z,9.43
2022-08-20T04:05:40.705Z,8.93
2022-08-20T04:07:16.461Z,7.97
2022-08-20T04:08:49.638Z,8.43
2022-08-20T04:10:23.036Z,9.18
2022-08-20T04:11:58.865Z,9.48
2022-08-20T04:13:32.821Z,8.85
2022-08-20T04:15:07.161Z,8.70
2022-08-20T04:16:43.418Z,8.63
2022-08-20T04:18:20.652Z,9.10
2022-08-20T04:19:53.144Z,8.88
2022-08-20T04:21:29.680Z,8.75
2022-08-20T04:23:06.790Z,8.82
2022-08-20T04:24:40.360Z,7.63
2022-08-20T04:26:13.704Z,8.02
2022-08-20T04:27:47.080Z,9.02
2022-08-20T04:29:20.772Z,19.27
2022-08-20T04:30:54.864Z,10.25
2022-08-20T04:32:28.563Z,10.02
2022-08-20T04:34:03.087Z,9.52
2022-08-20T04:35:36.671Z,9.15
2022-08-20T04:37:16.472Z,9.15
2022-08-20T04:38:51.139Z,8.60
2022-08-20T04:40:42.720Z,9.18
2022-08-20T04:42:15.941Z,8.30
2022-08-20T04:43:49.431Z,9.00
2022-08-20T04:45:23.252Z,8.57
2022-08-20T04:46:56.872Z,8.48
2022-08-20T04:48:31.219Z,8.43
2022-08-20T04:50:07.661Z,9.05
2022-08-20T04:51:43.746Z,8.48
2022-08-20T04:53:25.313Z,8.82
2022-08-20T04:54:59.786Z,10.82
2022-08-20T04:56:38.328Z,8.85
2022-08-20T04:58:14.174Z,8.10
2022-08-20T04:59:47.618Z,7.57
2022-08-20T05:01:22.002Z,7.97
2022-08-20T05:02:55.304Z,8.00
2022-08-20T05:04:28.589Z,7.60
2022-08-20T05:06:02.740Z,8.63
2022-08-20T05:07:39.061Z,7.35
2022-08-20T05:09:13.655Z,7.50
2022-08-20T05:10:47.809Z,7.35
2022-08-20T05:12:21.178Z,6.72
2022-08-20T05:13:54.687Z,7.38
2022-08-20T05:15:27.911Z,7.10
2022-08-20T05:17:05.171Z,6.68
2022-08-20T05:18:38.527Z,7.47
2022-08-20T05:20:14.746Z,7.20
2022-08-20T05:21:47.900Z,7.25
2022-08-20T05:23:23.990Z,7.32
2022-08-20T05:24:59.789Z,7.28
2022-08-20T05:26:34.482Z,7.05
2022-08-20T05:28:12.722Z,6.45
2022-08-20T05:29:46.343Z,8.18
2022-08-20T05:31:21.867Z,6.75
2022-08-20T05:32:55.769Z,6.68
2022-08-20T05:34:28.946Z,7.80
2022-08-20T05:36:04.884Z,6.88
2022-08-20T05:37:39.427Z,7.22
2022-08-20T05:39:13.481Z,7.25
2022-08-20T05:40:48.475Z,6.78
2022-08-20T05:42:21.817Z,6.35
2022-08-20T05:43:55.295Z,8.43
2022-08-20T05:45:28.913Z,6.82
2022-08-20T05:47:01.990Z,6.85
2022-08-20T05:48:37.478Z,7.15
2022-08-20T05:50:20.705Z,6.38
2022-08-20T05:51:56.919Z,7.10
2022-08-20T05:53:30.124Z,7.18
2022-08-20T05:55:02.358Z,7.00
2022-08-20T05:56:37.834Z,6.78
2022-08-20T05:58:19.717Z,6.80
2022-08-20T05:59:53.143Z,7.72
2022-08-20T06:01:26.475Z,7.22
2022-08-20T06:03:17.802Z,6.70
2022-08-20T06:04:56.261Z,6.55
2022-08-20T06:06:44.508Z,6.95
2022-08-20T06:08:19.739Z,6.90
2022-08-20T06:09:53.220Z,7.32
2022-08-20T06:11:25.816Z,6.78
2022-08-20T06:13:00.612Z,6.60
2022-08-20T06:14:34.532Z,7.20
2022-08-20T06:16:08.070Z,6.93
2022-08-20T06:17:42.436Z,6.93
2022-08-20T06:19:15.913Z,6.85
2022-08-20T06:20:58.690Z,6.88
2022-08-20T06:22:32.230Z,6.45
2022-08-20T06:24:05.280Z,6.55
2022-08-20T06:25:38.831Z,6.40
2022-08-20T06:27:15.858Z,6.85
2022-08-20T06:28:50.500Z,6.10
2022-08-20T06:30:27.746Z,6.22
2022-08-20T06:32:02.376Z,6.00
2022-08-20T06:33:35.838Z,6.10
2022-08-20T06:35:10.947Z,6.07
2022-08-20T06:36:46.452Z,6.25
2022-08-20T06:38:20.368Z,5.68
2022-08-20T06:39:54.681Z,6.25
2022-08-20T06:41:36.267Z,6.63
2022-08-20T06:43:10.456Z,6.10
2022-08-20T06:44:50.264Z,6.78
2022-08-20T06:46:24.256Z,5.85
2022-08-20T06:48:01.165Z,5.93
2022-08-20T06:49:36.552Z,6.93
2022-08-20T06:51:10.473Z,6.82
2022-08-20T06:52:52.905Z,5.78
2022-08-20T06:54:28.679Z,6.18
2022-08-20T06:56:07.095Z,6.40
2022-08-20T06:57:41.176Z,6.03
2022-08-20T06:59:14.401Z,6.30
2022-08-20T07:00:49.298Z,5.82
2022-08-20T07:02:30.005Z,6.20
2022-08-20T07:04:05.698Z,6.80
2022-08-20T07:05:42.431Z,6.57
2022-08-20T07:07:20.669Z,6.07
2022-08-20T07:08:54.175Z,6.00
2022-08-20T07:10:27.991Z,6.22
2022-08-20T07:12:01.403Z,6.35
2022-08-20T07:13:36.719Z,5.95
2022-08-20T07:15:12.549Z,5.95
2022-08-20T07:16:48.366Z,6.20
2022-08-20T07:18:28.507Z,6.32
2022-08-20T07:20:05.499Z,6.32
2022-08-20T07:21:39.065Z,6.38
2022-08-20T07:23:12.531Z,6.72
2022-08-20T07:24:49.034Z,6.82
2022-08-20T07:26:22.475Z,6.82
2022-08-20T07:28:01.799Z,6.05
2022-08-20T07:29:49.084Z,7.00
2022-08-20T07:31:40.064Z,6.47
2022-08-20T07:33:17.081Z,6.22
2022-08-20T07:34:51.976Z,6.78
2022-08-20T07:36:25.252Z,5.88
2022-08-20T07:37:58.521Z,6.28
2022-08-20T07:39:31.780Z,6.60
2022-08-20T07:41:07.774Z,6.30
2022-08-20T07:42:41.290Z,5.68
2022-08-20T07:44:14.639Z,6.00
2022-08-20T07:45:48.037Z,5.85
2022-08-20T07:47:23.367Z,6.28
2022-08-20T07:48:57.929Z,5.88
2022-08-20T07:50:31.876Z,6.38
2022-08-20T07:52:05.971Z,6.57
2022-08-20T07:53:42.196Z,6.53
2022-08-20T07:55:17.549Z,5.72
2022-08-20T07:56:51.061Z,6.30
2022-08-20T07:58:25.791Z,5.82
2022-08-20T08:00:09.281Z,6.95
2022-08-20T08:01:42.521Z,6.25
2022-08-20T08:03:15.698Z,5.75
2022-08-20T08:04:50.505Z,6.18
2022-08-20T08:06:30.541Z,6.25
2022-08-20T08:08:07.331Z,5.63
2022-08-20T08:09:40.925Z,5.35
2022-08-20T08:11:14.329Z,4.90
2022-08-20T08:12:55.508Z,6.10
2022-08-20T08:14:32.015Z,6.57
2022-08-20T08:16:07.661Z,4.93
2022-08-20T08:17:41.352Z,5.03
2022-08-20T08:19:18.681Z,5.00
2022-08-20T08:20:54.311Z,5.10
2022-08-20T08:22:27.633Z,3.72
2022-08-20T08:24:01.449Z,3.85
2022-08-20T08:25:35.554Z,4.93
2022-08-20T08:27:09.288Z,3.95
2022-08-20T08:28:44.249Z,4.50
2022-08-20T08:30:18.132Z,4.40
2022-08-20T08:31:51.768Z,3.58
2022-08-20T08:33:28.967Z,4.43
2022-08-20T08:35:07.507Z,4.20
2022-08-20T08:36:44.270Z,3.22
2022-08-20T08:38:18.329Z,3.65
2022-08-20T08:39:51.749Z,3.95
2022-08-20T08:41:31.401Z,3.58
2022-08-20T08:43:06.801Z,3.75
2022-08-20T08:44:43.253Z,3.90
2022-08-20T08:46:20.781Z,4.15
2022-08-20T08:47:54.647Z,3.85
2022-08-20T08:49:37.387Z,4.38
2022-08-20T08:51:13.184Z,5.95
2022-08-20T08:52:51.138Z,4.57
2022-08-20T08:54:28.028Z,5.00
2022-08-20T08:56:00.636Z,3.60
2022-08-20T08:57:34.404Z,4.40
2022-08-20T08:59:09.334Z,4.10
2022-08-20T09:00:56.241Z,4.53
2022-08-20T09:02:32.230Z,5.78
2022-08-20T09:04:06.081Z,4.47
2022-08-20T09:05:45.860Z,4.40
2022-08-20T09:07:19.383Z,4.07
2022-08-20T09:08:57.017Z,4.25
2022-08-20T09:10:29.637Z,4.25
2022-08-20T09:12:06.904Z,4.10
2022-08-20T09:13:40.714Z,4.65
2022-08-20T09:15:14.243Z,4.07
2022-08-20T09:16:52.888Z,3.92
2022-08-20T09:18:26.828Z,5.10
2022-08-20T09:20:00.032Z,4.60
2022-08-20T09:21:33.411Z,4.65
2022-08-20T09:23:06.067Z,4.63
2022-08-20T09:24:41.694Z,4.53
2022-08-20T09:26:15.036Z,4.70
2022-08-20T09:27:48.501Z,4.75
2022-08-20T09:29:24.239Z,4.30
2022-08-20T09:30:57.401Z,3.95
2022-08-20T09:32:31.600Z,4.40
2022-08-20T09:34:06.199Z,4.18
2022-08-20T09:35:40.411Z,4.22
2022-08-20T09:37:13.914Z,5.03
2022-08-20T09:38:47.216Z,4.70
2022-08-20T09:40:22.988Z,4.45
2022-08-20T09:41:56.371Z,4.38
2022-08-20T09:43:28.858Z,4.65
2022-08-20T09:45:02.582Z,4.55
2022-08-20T09:46:36.342Z,3.97
2022-08-20T09:48:10.457Z,4.43
2022-08-20T09:49:44.259Z,4.35
2022-08-20T09:51:17.405Z,4.63
2022-08-20T09:52:53.717Z,5.10
2022-08-20T09:54:30.231Z,4.70
2022-08-20T09:56:05.289Z,5.22
2022-08-20T09:57:38.499Z,4.20
2022-08-20T09:59:12.402Z,4.70
2022-08-20T10:00:45.653Z,5.57
2022-08-20T10:02:18.928Z,4.63
2022-08-20T10:03:52.412Z,4.97
2022-08-20T10:05:26.018Z,5.30
2022-08-20T10:06:58.337Z,4.80
2022-08-20T10:08:31.629Z,4.70
2022-08-20T10:10:06.710Z,4.95
2022-08-20T10:11:41.587Z,4.38
2022-08-20T10:13:15.381Z,4.80
2022-08-20T10:14:48.838Z,4.70
2022-08-20T10:16:22.139Z,4.63
2022-08-20T10:17:57.283Z,5.00
2022-08-20T10:19:31.329Z,5.00
2022-08-20T10:21:04.516Z,4.72
2022-08-20T10:22:37.817Z,4.68
2022-08-20T10:24:11.126Z,5.47
2022-08-20T10:25:45.038Z,4.50
2022-08-20T10:27:19.608Z,4.07
2022-08-20T10:28:52.996Z,4.63
2022-08-20T10:30:26.735Z,5.00
2022-08-20T10:32:12.290Z,5.50
2022-08-20T10:33:45.481Z,4.45
2022-08-20T10:35:19.279Z,5.43
2022-08-20T10:36:52.732Z,4.57
2022-08-20T10:38:26.647Z,4.90
2022-08-20T10:39:59.890Z,4.57
2022-08-20T10:41:37.166Z,4.72
2022-08-20T10:43:13.384Z,5.30
2022-08-20T10:44:50.219Z,4.65
2022-08-20T10:46:23.401Z,4.57
2022-08-20T10:47:59.731Z,4.45
2022-08-20T10:49:35.182Z,5.07
2022-08-20T10:51:09.121Z,5.13
2022-08-20T10:52:43.130Z,4.85
2022-08-20T10:54:16.266Z,5.18
2022-08-20T10:55:49.742Z,5.00
2022-08-20T10:57:25.506Z,5.22
2022-08-20T10:59:00.151Z,4.80
2022-08-20T11:00:33.342Z,5.20
2022-08-20T11:02:06.779Z,4.20
2022-08-20T11:03:40.303Z,4.65
2022-08-20T11:05:13.723Z,5.70
2022-08-20T11:06:46.932Z,5.47
2022-08-20T11:08:33.406Z,4.85
2022-08-20T11:10:13.617Z,4.43
2022-08-20T11:11:47.217Z,5.00
2022-08-20T11:13:20.508Z,5.07
2022-08-20T11:14:56.406Z,5.18
2022-08-20T11:16:31.166Z,4.68
2022-08-20T11:18:05.093Z,4.40
2022-08-20T11:19:42.349Z,4.65
2022-08-20T11:21:15.898Z,4.60
2022-08-20T11:22:48.394Z,4.80
2022-08-20T11:24:21.680Z,4.90
2022-08-20T11:25:55.289Z,4.95
2022-08-20T11:27:31.896Z,4.90
2022-08-20T11:29:05.797Z,4.80
2022-08-20T11:30:40.415Z,4.13
2022-08-20T11:32:13.574Z,4.80
2022-08-20T11:33:46.872Z,4.50
2022-08-20T11:35:42.289Z,4.35
2022-08-20T11:37:16.979Z,5.13
2022-08-20T11:38:50.157Z,5.63
2022-08-20T11:40:25.236Z,4.57
2022-08-20T11:41:58.413Z,4.50
2022-08-20T11:43:31.740Z,4.60
2022-08-20T11:45:05.608Z,4.63
2022-08-20T11:46:41.615Z,4.82
2022-08-20T11:48:15.166Z,4.78
2022-08-20T11:49:48.361Z,4.60
2022-08-20T11:51:21.540Z,5.40
2022-08-20T11:52:55.158Z,4.60
2022-08-20T11:54:29.543Z,4.45
2022-08-20T11:56:02.877Z,5.10
2022-08-20T11:57:38.976Z,4.70
2022-08-20T11:59:13.359Z,4.10
2022-08-20T12:00:46.733Z,4.20
2022-08-20T12:02:21.434Z,4.45
2022-08-20T12:03:54.653Z,4.43
2022-08-20T12:05:30.147Z,4.07
2022-08-20T12:07:11.158Z,4.80
2022-08-20T12:08:44.411Z,4.60
2022-08-20T12:10:17.683Z,4.75
2022-08-20T12:11:51.421Z,4.18
2022-08-20T12:13:46.569Z,3.85
2022-08-20T12:15:17.850Z,4.47
2022-08-20T12:16:51.136Z,3.85
2022-08-20T12:18:26.993Z,4.82
2022-08-20T12:20:03.954Z,4.30
2022-08-20T12:21:37.611Z,4.18
2022-08-20T12:23:10.755Z,4.35
2022-08-20T12:24:44.514Z,4.60
2022-08-20T12:26:19.190Z,4.32
2022-08-20T12:27:52.508Z,4.72
2022-08-20T12:29:26.139Z,4.40
2022-08-20T12:31:00.104Z,4.65
2022-08-20T12:32:33.953Z,4.50
2022-08-20T12:34:08.642Z,4.28
2022-08-20T12:35:41.958Z,4.78
2022-08-20T12:37:19.213Z,4.22
2022-08-20T12:38:52.791Z,5.10
2022-08-20T12:40:32.462Z,5.03
2022-08-20T12:42:06.910Z,4.78
2022-08-20T12:43:40.338Z,5.10
2022-08-20T12:45:12.796Z,4.53
2022-08-20T12:46:46.224Z,4.05
2022-08-20T12:48:20.932Z,4.60
2022-08-20T12:50:00.436Z,4.95
2022-08-20T12:51:33.857Z,4.20
2022-08-20T12:53:07.237Z,4.63
2022-08-20T12:54:40.570Z,4.60
2022-08-20T12:56:13.994Z,4.95
2022-08-20T12:57:48.551Z,4.18
2022-08-20T12:59:26.114Z,4.70
2022-08-20T13:00:59.740Z,4.65
2022-08-20T13:02:33.141Z,5.05
2022-08-20T13:04:06.451Z,4.80
2022-08-20T13:05:42.128Z,4.30
2022-08-20T13:07:15.502Z,4.75
2022-08-20T13:08:48.877Z,4.20
2022-08-20T13:10:25.643Z,4.40
2022-08-20T13:11:58.914Z,5.47
2022-08-20T13:13:32.263Z,4.80
2022-08-20T13:15:05.312Z,5.22
2022-08-20T13:16:38.646Z,5.20
2022-08-20T13:18:12.107Z,4.60
2022-08-20T13:19:45.713Z,4.57
2022-08-20T13:21:23.924Z,4.95
2022-08-20T13:22:58.261Z,4.57
2022-08-20T13:24:32.097Z,4.40
2022-08-20T13:26:05.856Z,4.78
2022-08-20T13:27:41.218Z,4.63
2022-08-20T13:29:15.170Z,4.20
2022-08-20T13:30:48.425Z,4.32
2022-08-20T13:32:21.532Z,4.22
2022-08-20T13:33:54.929Z,4.95
2022-08-20T13:35:28.576Z,4.20
2022-08-20T13:37:03.283Z,4.82
2022-08-20T13:38:36.530Z,4.70
2022-08-20T13:40:11.679Z,4.57
2022-08-20T13:41:45.473Z,4.03
2022-08-20T13:43:18.736Z,5.05
2022-08-20T13:44:51.025Z,4.30
2022-08-20T13:46:24.462Z,5.30
2022-08-20T13:47:57.887Z,5.07
2022-08-20T13:49:33.819Z,4.50
2022-08-20T13:51:07.566Z,4.72
2022-08-20T13:52:43.048Z,4.70
2022-08-20T13:54:16.396Z,4.35
2022-08-20T13:55:50.234Z,4.25
2022-08-20T13:57:25.893Z,4.55
2022-08-20T13:58:59.463Z,4.38
2022-08-20T14:00:34.653Z,4.20
2022-08-20T14:02:09.236Z,4.80
2022-08-20T14:03:42.841Z,3.92
2022-08-20T14:05:18.958Z,4.57
2022-08-20T14:06:52.716Z,5.15
2022-08-20T14:08:27.374Z,4.90
2022-08-20T14:10:03.602Z,4.40
2022-08-20T14:11:37.183Z,4.55
2022-08-20T14:13:15.142Z,4.55
2022-08-20T14:14:48.854Z,4.68
2022-08-20T14:16:27.239Z,4.65
2022-08-20T14:18:01.376Z,5.40
2022-08-20T14:19:38.342Z,6.13
2022-08-20T14:21:11.772Z,4.68
2022-08-20T14:22:45.211Z,4.60
2022-08-20T14:24:20.131Z,4.78
2022-08-20T14:25:53.457Z,4.47
2022-08-20T14:27:31.136Z,4.68
2022-08-20T14:29:04.724Z,4.82
2022-08-20T14:30:38.278Z,4.43
2022-08-20T14:32:12.153Z,4.05
2022-08-20T14:33:45.442Z,4.57
2022-08-20T14:35:18.637Z,4.32
2022-08-20T14:36:52.227Z,4.78
2022-08-20T14:38:25.451Z,3.95
2022-08-20T14:40:02.180Z,5.82
2022-08-20T14:41:35.485Z,5.03
2022-08-20T14:43:08.837Z,4.22
2022-08-20T14:44:42.860Z,4.30
2022-08-20T14:46:16.296Z,5.28
2022-08-20T14:47:54.002Z,4.70
2022-08-20T14:49:28.249Z,5.63
2022-08-20T14:51:03.125Z,4.15
2022-08-20T14:52:36.956Z,4.72
2022-08-20T14:54:10.288Z,5.07
2022-08-20T14:55:44.980Z,4.70
2022-08-20T14:57:19.166Z,4.55
2022-08-20T14:58:52.624Z,4.15
2022-08-20T15:00:27.962Z,4.40
2022-08-20T15:02:01.312Z,4.70
2022-08-20T15:03:34.461Z,5.10
2022-08-20T15:05:09.238Z,4.07
2022-08-20T15:06:42.774Z,4.18
2022-08-20T15:08:16.061Z,4.30
2022-08-20T15:09:49.382Z,4.30
2022-08-20T15:11:23.964Z,4.63
2022-08-20T15:12:58.023Z,5.15
2022-08-20T15:14:31.392Z,5.10
2022-08-20T15:16:05.382Z,4.63
2022-08-20T15:17:37.598Z,4.90
2022-08-20T15:19:12.321Z,4.38
2022-08-20T15:20:45.922Z,4.88
2022-08-20T15:22:20.976Z,4.10
2022-08-20T15:23:54.459Z,4.82
2022-08-20T15:25:36.411Z,4.45
2022-08-20T15:27:22.408Z,4.70
2022-08-20T15:28:56.251Z,4.15
2022-08-20T15:30:31.247Z,4.93
2022-08-20T15:32:05.673Z,5.20
2022-08-20T15:33:39.595Z,4.15
2022-08-20T15:35:13.325Z,4.53
2022-08-20T15:36:47.071Z,4.95
2022-08-20T15:38:20.231Z,4.88
2022-08-20T15:39:54.713Z,4.25
2022-08-20T15:41:30.512Z,4.55
2022-08-20T15:43:09.806Z,4.03
2022-08-20T15:44:42.825Z,5.93
2022-08-20T15:46:16.228Z,5.47
2022-08-20T15:47:54.273Z,4.80
2022-08-20T15:49:27.795Z,5.80
2022-08-20T15:51:17.904Z,5.28
2022-08-20T15:52:51.241Z,4.70
2022-08-20T15:54:26.243Z,5.13
2022-08-20T15:56:05.995Z,6.93
2022-08-20T15:57:48.958Z,6.93
2022-08-20T15:59:47.422Z,6.18
2022-08-20T16:01:29.237Z,5.85
2022-08-20T16:03:33.131Z,5.60
2022-08-20T16:05:15.747Z,5.10
2022-08-20T16:06:53.425Z,5.13
2022-08-20T16:08:48.304Z,5.38
2022-08-20T16:10:27.956Z,4.85
2022-08-20T16:12:08.865Z,5.05
2022-08-20T16:13:50.479Z,5.50
2022-08-20T16:15:29.852Z,6.22
2022-08-20T16:17:06.818Z,5.18
2022-08-20T16:18:42.382Z,5.07
2022-08-20T16:20:24.763Z,4.95
2022-08-20T16:22:08.064Z,4.55
2022-08-20T16:23:43.871Z,4.80
2022-08-20T16:25:22.634Z,5.35
2022-08-20T16:27:13.891Z,5.18
2022-08-20T16:29:11.328Z,5.85
2022-08-20T16:30:50.699Z,4.78
2022-08-20T16:32:39.119Z,4.95
2022-08-20T16:34:33.125Z,6.00
2022-08-20T16:36:12.127Z,5.40
2022-08-20T16:37:54.668Z,4.50
2022-08-20T16:39:33.243Z,4.25
2022-08-20T16:41:14.848Z,4.38
2022-08-20T16:42:51.310Z,4.88
2022-08-20T16:44:33.844Z,5.78
2022-08-20T16:46:17.739Z,7.30
2022-08-20T16:47:53.529Z,7.32
2022-08-20T16:49:31.060Z,8.75
2022-08-20T16:51:07.966Z,12.48
2022-08-20T16:52:44.881Z,7.88
2022-08-20T16:54:18.983Z,8.50
2022-08-20T16:56:01.365Z,13.23
2022-08-20T16:57:35.068Z,8.30
2022-08-20T16:59:10.759Z,7.05
2022-08-20T17:00:45.288Z,8.20
2022-08-20T17:02:21.175Z,6.70
2022-08-20T17:03:55.010Z,8.82
2022-08-20T17:05:43.915Z,8.50
2022-08-20T17:07:31.012Z,7.55
2022-08-20T17:09:12.203Z,8.73
2022-08-20T17:10:57.127Z,7.57
2022-08-20T17:12:30.413Z,7.53
2022-08-20T17:14:10.899Z,8.18
2022-08-20T17:15:45.590Z,7.63
2022-08-20T17:17:26.194Z,7.47
2022-08-20T17:19:10.344Z,7.10
2022-08-20T17:20:46.595Z,7.47
2022-08-20T17:22:21.365Z,7.65
2022-08-20T17:23:58.294Z,6.32
2022-08-20T17:25:35.821Z,6.50
2022-08-20T17:27:15.066Z,6.40
2022-08-20T17:28:51.438Z,7.57
2022-08-20T17:30:28.840Z,8.00
2022-08-20T17:32:16.334Z,17.42
2022-08-20T17:33:50.880Z,7.75
2022-08-20T17:35:30.151Z,7.15
2022-08-20T17:37:08.573Z,7.35
2022-08-20T17:38:48.124Z,7.85
2022-08-20T17:40:26.628Z,8.35
2022-08-20T17:42:08.133Z,7.38
2022-08-20T17:43:43.549Z,8.85
2022-08-20T17:45:23.400Z,6.88
2022-08-20T17:46:57.899Z,7.95
2022-08-20T17:48:36.722Z,6.93
2022-08-20T17:50:17.275Z,7.72
2022-08-20T17:51:54.075Z,7.85
2022-08-20T17:53:32.802Z,7.05
2022-08-20T17:55:07.384Z,7.47
2022-08-20T17:56:43.260Z,7.60
2022-08-20T17:58:18.850Z,8.25
2022-08-20T18:00:01.587Z,8.18
2022-08-20T18:01:38.543Z,7.82
2022-08-20T18:03:20.052Z,7.95
2022-08-20T18:04:53.945Z,7.78
2022-08-20T18:06:35.650Z,7.25
2022-08-20T18:08:31.141Z,6.68
2022-08-20T18:10:10.946Z,6.97
2022-08-20T18:11:48.816Z,7.07
2022-08-20T18:13:28.891Z,6.43
2022-08-20T18:15:09.542Z,7.28
2022-08-20T18:16:49.752Z,7.55
2022-08-20T18:18:49.445Z,8.45
2022-08-20T18:20:49.574Z,7.30
2022-08-20T18:22:27.758Z,7.28
2022-08-20T18:24:05.598Z,8.27
2022-08-20T18:25:43.143Z,7.95
2022-08-20T18:27:20.730Z,8.02
2022-08-20T18:29:01.125Z,8.88
2022-08-20T18:30:48.026Z,7.75
2022-08-20T18:32:30.899Z,8.35
2022-08-20T18:34:12.729Z,8.07
2022-08-20T18:35:46.950Z,8.48
2022-08-20T18:37:29.168Z,8.65
2022-08-20T18:39:06.052Z,8.90
2022-08-20T18:40:41.612Z,9.00
2022-08-20T18:42:26.733Z,8.70
2022-08-20T18:44:06.735Z,8.52
2022-08-20T18:45:40.027Z,8.90
2022-08-20T18:47:22.316Z,9.25
2022-08-20T18:48:59.241Z,9.20
2022-08-20T18:50:50.893Z,9.10
2022-08-20T18:52:28.174Z,8.65
2022-08-20T18:54:01.649Z,8.77
2022-08-20T18:55:36.924Z,9.38
2022-08-20T18:57:20.560Z,8.75
2022-08-20T18:59:01.623Z,9.45
2022-08-20T19:00:39.661Z,9.38
2022-08-20T19:02:23.603Z,9.70
2022-08-20T19:03:58.729Z,9.48
2022-08-20T19:05:39.195Z,9.52
2022-08-20T19:07:16.308Z,10.32
2022-08-20T19:08:55.297Z,9.85
2022-08-20T19:10:45.784Z,9.65
2022-08-20T19:12:46.585Z,9.20
2022-08-20T19:14:41.556Z,8.90
2022-08-20T19:16:20.489Z,9.38
2022-08-20T19:18:02.007Z,9.02
2022-08-20T19:19:35.906Z,8.93
2022-08-20T19:21:16.007Z,8.50
2022-08-20T19:22:51.793Z,8.70
2022-08-20T19:24:29.287Z,8.30
2022-08-20T19:26:05.790Z,8.32
2022-08-20T19:27:51.475Z,7.80
2022-08-20T19:29:30.646Z,7.57
2022-08-20T19:31:11.139Z,7.80
2022-08-20T19:32:52.846Z,7.80
2022-08-20T19:34:26.518Z,8.82
2022-08-20T19:36:13.836Z,7.60
2022-08-20T19:37:51.581Z,8.40
2022-08-20T19:39:28.665Z,9.15
2022-08-20T19:41:11.379Z,9.23
2022-08-20T19:42:45.235Z,8.85
2022-08-20T19:44:29.860Z,8.40
2022-08-20T19:46:03.121Z,8.32
2022-08-20T19:47:39.411Z,9.25
2022-08-20T19:49:25.260Z,8.77
2022-08-20T19:51:06.831Z,9.20
2022-08-20T19:52:58.020Z,8.85
2022-08-20T19:54:33.289Z,8.93
2022-08-20T19:56:12.196Z,9.30
2022-08-20T19:57:52.800Z,7.70
2022-08-20T19:59:27.089Z,7.80
2022-08-20T20:01:02.588Z,9.13
2022-08-20T20:02:35.546Z,8.57
2022-08-20T20:04:15.775Z,7.88
2022-08-20T20:05:53.943Z,9.23
2022-08-20T20:07:29.232Z,8.30
2022-08-20T20:09:05.755Z,8.75
2022-08-20T20:10:40.350Z,7.95
2022-08-20T20:12:23.052Z,8.40
2022-08-20T20:14:01.502Z,9.00
2022-08-20T20:15:35.430Z,7.85
2022-08-20T20:17:10.233Z,8.20
2022-08-20T20:19:03.984Z,8.85
2022-08-20T20:20:50.135Z,9.13
2022-08-20T20:22:33.063Z,9.63
2022-08-20T20:24:05.493Z,9.93
2022-08-20T20:25:44.315Z,10.30
2022-08-20T20:27:23.418Z,9.43
2022-08-20T20:29:06.454Z,9.27
2022-08-20T20:30:40.764Z,7.63
2022-08-20T20:32:19.886Z,8.80
2022-08-20T20:33:56.362Z,9.38
2022-08-20T20:35:34.646Z,8.80
2022-08-20T20:37:10.235Z,9.10
2022-08-20T20:38:55.312Z,10.05
2022-08-20T20:40:33.759Z,8.60
2022-08-20T20:42:13.013Z,10.10
2022-08-20T20:43:46.407Z,8.82
2022-08-20T20:45:20.764Z,10.40
2022-08-20T20:46:57.619Z,10.57
2022-08-20T20:48:42.127Z,9.50
2022-08-20T20:50:15.276Z,8.23
2022-08-20T20:51:56.342Z,9.57
2022-08-20T20:53:51.621Z,9.77
2022-08-20T20:55:29.461Z,9.13
2022-08-20T20:57:04.102Z,11.05
2022-08-20T20:58:39.099Z,9.85
2022-08-20T21:00:15.075Z,10.90
2022-08-20T21:01:50.569Z,9.77
2022-08-20T21:03:24.082Z,10.95
2022-08-20T21:04:59.741Z,10.18
2022-08-20T21:06:32.932Z,11.40
2022-08-20T21:08:09.128Z,10.38
2022-08-20T21:09:44.153Z,10.23
2022-08-20T21:11:16.870Z,10.63
2022-08-20T21:12:52.842Z,12.65
2022-08-20T21:14:27.765Z,11.90
2022-08-20T21:16:01.119Z,11.35
2022-08-20T21:17:35.447Z,11.48
2022-08-20T21:19:11.152Z,11.48
2022-08-20T21:20:44.456Z,11.35